Grande Brasile — ZDJO4 — position and weather

sailwx.info

Track history (hours):
 
Tides and Currents Weather Stations Pressure Air Temp Water Temp Dewpoint Dewpoint Depression Visibility Wind Speed Wind Dir Waves Ship Positions

Grande Brasile

Last reported at 2018-Apr-19 23:00 UTC. Time now 2018-Apr-19 23:17 UTC.
Position N 53°51' E 008°45'.

Length 214 m; draft 8.6 m.

Type: Cargo ship. MMSI: 236543000.

Date/timePositionNaut miles runAvg speedWind from/ knotsBaromVisibWave heightAir tempDewpointWater temp
2018-Apr-19 23:00N 53°51' E 008°45'612.2
2018-Apr-19 22:30N 53°56' E 008°39'814.9
2018-Apr-19 21:59N 53°59' E 008°27'713.5
2018-Apr-19 21:27N 53°60' E 008°15'510.2
2018-Apr-19 20:59N 53°59' E 008°07'2 4.7
2018-Apr-19 20:30N 53°59' E 008°03'3 5.1
2018-Apr-19 19:57N 53°59' E 007°58'511.6
2018-Apr-19 19:30N 53°57' E 007°50'8511.7
2018-Apr-19 12:13N 53°34' E 005°31'312.2
2018-Apr-19 12:00N 53°34' E 005°26'612.4
2018-Apr-19 11:30N 53°32' E 005°17'612.8
2018-Apr-19 11:00N 53°29' E 005°06'713.5
2018-Apr-19 10:30N 53°27' E 004°56'612.9
2018-Apr-19 10:00N 53°25' E 004°46'713.1
2018-Apr-19 09:30N 53°19' E 004°40'713.7
2018-Apr-19 09:00N 53°13' E 004°34'713.8
2018-Apr-19 08:30N 53°07' E 004°29'714.0
2018-Apr-19 08:00N 53°01' E 004°23'714.3
2018-Apr-19 07:31N 52°55' E 004°17'714.3
2018-Apr-19 07:00N 52°49' E 004°11'714.1
2018-Apr-19 06:30N 52°44' E 004°03'714.1
2018-Apr-19 06:00N 52°39' E 003°55'714.2
2018-Apr-19 05:30N 52°33' E 003°47'714.4
2018-Apr-19 05:00N 52°28' E 003°39'714.4
2018-Apr-19 04:30N 52°22' E 003°32'714.8
2018-Apr-19 04:00N 52°15' E 003°29'714.9
2018-Apr-19 03:30N 52°08' E 003°26'714.8
2018-Apr-19 03:00N 52°01' E 003°24'714.6
2018-Apr-19 02:30N 51°53' E 003°21'714.3
2018-Apr-19 02:00N 51°47' E 003°17'713.5
2018-Apr-19 01:30N 51°40' E 003°13'816.1
2018-Apr-19 01:00N 51°33' E 003°09'815.6
2018-Apr-19 00:30N 51°27' E 003°01'612.6
2018-Apr-19 00:00N 51°24' E 003°10'815.4
2018-Apr-18 23:30N 51°25' E 003°22'714.5
2018-Apr-18 23:00N 51°26' E 003°34'4 8.1
2018-Apr-18 22:30N 51°26' E 003°40'713.5
2018-Apr-18 22:00N 51°21' E 003°47'714.7
2018-Apr-18 21:30N 51°25' E 003°58'5 9.6
2018-Apr-18 21:00N 51°22' E 004°04'611.1
2018-Apr-18 20:30N 51°22' E 004°13'5 9.2
2018-Apr-18 20:00N 51°18' E 004°16'1 1.8
2018-Apr-18 19:24N 51°17' E 004°15'0 0.0
2018-Apr-18 19:00N 51°17' E 004°15'0 0.9
2018-Apr-18 18:30N 51°16' E 004°14'1 1.5
2018-Apr-18 17:57N 51°17' E 004°13'0 0.0
2018-Apr-18 17:27N 51°17' E 004°13'0 0.0
2018-Apr-18 17:00N 51°17' E 004°13'0 0.0
2018-Apr-18 16:30N 51°17' E 004°13'0 0.0
2018-Apr-18 16:00N 51°17' E 004°13'0 0.0
2018-Apr-18 15:30N 51°17' E 004°13'0 0.0
2018-Apr-18 15:00N 51°17' E 004°13'0 0.0
2018-Apr-18 14:27N 51°17' E 004°13'0 0.0
2018-Apr-18 13:57N 51°17' E 004°13'0 0.0
2018-Apr-18 13:30N 51°17' E 004°13'0 0.0
2018-Apr-18 13:00N 51°17' E 004°13'0 0.0
2018-Apr-18 12:30N 51°17' E 004°13'0 0.0
2018-Apr-18 12:00N 51°17' E 004°13'0 0.0
2018-Apr-18 11:30N 51°17' E 004°13'0 0.0
2018-Apr-18 10:54N 51°17' E 004°13'0 0.0
2018-Apr-18 10:30N 51°17' E 004°13'0 0.0
2018-Apr-18 10:00N 51°17' E 004°13'0 0.0
2018-Apr-18 09:27N 51°17' E 004°13'0 0.0
2018-Apr-18 08:57N 51°17' E 004°13'0 0.0
2018-Apr-18 08:30N 51°17' E 004°13'0 0.0
2018-Apr-18 08:00N 51°17' E 004°13'0 0.0
2018-Apr-18 07:30N 51°17' E 004°13'0 0.0
2018-Apr-18 07:00N 51°17' E 004°13'0 0.0
2018-Apr-18 06:30N 51°17' E 004°13'0 0.0
2018-Apr-18 06:00N 51°17' E 004°13'0 0.0
2018-Apr-18 05:30N 51°17' E 004°13'0 0.0
2018-Apr-18 05:00N 51°17' E 004°13'0 0.0
2018-Apr-18 04:30N 51°17' E 004°13'0 0.0
2018-Apr-18 04:00N 51°17' E 004°13'0 0.0
2018-Apr-18 03:30N 51°17' E 004°13'0 0.0
2018-Apr-18 03:00N 51°17' E 004°13'0 0.0
2018-Apr-18 02:27N 51°17' E 004°13'0 0.0
2018-Apr-18 02:00N 51°17' E 004°13'0 0.0
2018-Apr-18 01:30N 51°17' E 004°13'0 0.0
2018-Apr-18 00:57N 51°17' E 004°13'0 0.0
2018-Apr-18 00:30N 51°17' E 004°13'0 0.0
2018-Apr-18 00:00N 51°17' E 004°13'0 0.0
2018-Apr-17 23:27N 51°17' E 004°13'0 0.0
2018-Apr-17 23:00N 51°17' E 004°13'0 0.0
2018-Apr-17 22:30N 51°17' E 004°13'0 0.0
2018-Apr-17 22:00N 51°17' E 004°13'0 0.0
2018-Apr-17 21:30N 51°17' E 004°13'0 0.0
2018-Apr-17 21:00N 51°17' E 004°13'0 0.0
2018-Apr-17 20:30N 51°17' E 004°13'0 0.0
2018-Apr-17 20:00N 51°17' E 004°13'0 0.0
2018-Apr-17 19:30N 51°17' E 004°13'0 0.0
2018-Apr-17 19:00N 51°17' E 004°13'0 0.0
2018-Apr-17 18:30N 51°17' E 004°13'0 0.0
2018-Apr-17 18:00N 51°17' E 004°13'0 0.0
2018-Apr-17 17:30N 51°17' E 004°13'0 0.0
2018-Apr-17 17:00N 51°17' E 004°13'0 0.0
2018-Apr-17 16:30N 51°17' E 004°13'0 0.0
2018-Apr-17 16:00N 51°17' E 004°13'0 0.0
2018-Apr-17 15:30N 51°17' E 004°13'0 0.0
2018-Apr-17 15:00N 51°17' E 004°13'0 0.0
2018-Apr-17 14:27N 51°17' E 004°13'0 0.0
2018-Apr-17 13:51N 51°17' E 004°13'0 0.0
2018-Apr-17 13:27N 51°17' E 004°13'0 0.0
2018-Apr-17 13:00N 51°17' E 004°13'0 0.0
2018-Apr-17 12:30N 51°17' E 004°13'0 0.0
2018-Apr-17 11:57N 51°17' E 004°13'0 0.0
2018-Apr-17 11:12N 51°17' E 004°13'0 0.0
2018-Apr-17 10:48N 51°17' E 004°13'0 0.0
2018-Apr-17 10:30N 51°17' E 004°13'0 0.0
2018-Apr-17 09:57N 51°17' E 004°13'0 0.0
2018-Apr-17 09:27N 51°17' E 004°13'0 0.0
2018-Apr-17 09:00N 51°17' E 004°13'0 0.0
2018-Apr-17 08:30N 51°17' E 004°13'0 0.0
2018-Apr-17 08:00N 51°17' E 004°13'0 0.0
2018-Apr-17 07:30N 51°17' E 004°13'0 0.0
2018-Apr-17 07:00N 51°17' E 004°13'0 0.0
2018-Apr-17 06:30N 51°17' E 004°13'0 0.0
2018-Apr-17 05:57N 51°17' E 004°13'0 0.0
2018-Apr-17 05:30N 51°17' E 004°13'0 0.0
2018-Apr-17 05:00N 51°17' E 004°13'0 0.0
2018-Apr-17 04:30N 51°17' E 004°13'0 0.0
2018-Apr-17 04:00N 51°17' E 004°13'0 0.0
2018-Apr-17 03:27N 51°17' E 004°13'0 0.0
2018-Apr-17 03:00N 51°17' E 004°13'0 0.0
2018-Apr-17 02:30N 51°17' E 004°13'0 0.0
2018-Apr-17 02:00N 51°17' E 004°13'0 0.0
2018-Apr-17 01:30N 51°17' E 004°13'0 0.0
2018-Apr-17 01:00N 51°17' E 004°13'0 0.0
2018-Apr-17 00:27N 51°17' E 004°13'0 0.0
2018-Apr-16 23:57N 51°17' E 004°13'0 0.0
2018-Apr-16 23:24N 51°17' E 004°13'0 0.0
2018-Apr-16 23:00N 51°17' E 004°13'0 0.0
2018-Apr-16 22:30N 51°17' E 004°13'0 0.0
2018-Apr-16 22:00N 51°17' E 004°13'0 0.0
2018-Apr-16 21:30N 51°17' E 004°13'0 0.0
2018-Apr-16 21:00N 51°17' E 004°13'0 0.0
2018-Apr-16 20:30N 51°17' E 004°13'0 0.0
2018-Apr-16 20:00N 51°17' E 004°13'0 0.0
2018-Apr-16 19:30N 51°17' E 004°13'0 0.0
2018-Apr-16 18:51N 51°17' E 004°13'0 0.0
2018-Apr-16 18:30N 51°17' E 004°13'0 0.0
2018-Apr-16 17:57N 51°17' E 004°13'0 0.0
2018-Apr-16 17:30N 51°17' E 004°13'0 0.0
2018-Apr-16 17:00N 51°17' E 004°13'0 0.0
2018-Apr-16 16:30N 51°17' E 004°13'0 0.0
2018-Apr-16 15:51N 51°17' E 004°13'0 0.0
2018-Apr-16 15:24N 51°17' E 004°13'0 0.0
2018-Apr-16 15:00N 51°17' E 004°13'0 0.0
2018-Apr-16 14:27N 51°17' E 004°13'0 0.0
2018-Apr-16 14:00N 51°17' E 004°13'0 0.0
2018-Apr-16 13:30N 51°17' E 004°13'0 0.0
2018-Apr-16 12:54N 51°17' E 004°13'0 0.0
2018-Apr-16 12:30N 51°17' E 004°13'0 0.0
2018-Apr-16 12:00N 51°17' E 004°13'0 0.0
2018-Apr-16 11:30N 51°17' E 004°13'0 0.0
2018-Apr-16 11:00N 51°17' E 004°13'0 0.0
2018-Apr-16 10:30N 51°17' E 004°13'0 0.0
2018-Apr-16 09:54N 51°17' E 004°13'0 0.0
2018-Apr-16 09:30N 51°17' E 004°13'0 0.0
2018-Apr-16 08:58N 51°17' E 004°13'0 0.0
2018-Apr-16 08:19N 51°17' E 004°13'0 0.0
2018-Apr-16 07:56N 51°17' E 004°13'0 0.0
2018-Apr-16 07:23N 51°17' E 004°13'0 0.0
2018-Apr-16 06:59N 51°17' E 004°13'0 0.0
2018-Apr-16 06:29N 51°17' E 004°13'0 0.0
2018-Apr-16 05:59N 51°17' E 004°13'0 0.0
2018-Apr-16 05:29N 51°17' E 004°13'0 0.0
2018-Apr-16 04:59N 51°17' E 004°13'0 0.0
2018-Apr-16 04:26N 51°17' E 004°13'0 0.0
2018-Apr-16 03:56N 51°17' E 004°13'0 0.0
2018-Apr-16 03:29N 51°17' E 004°13'0 0.0
2018-Apr-16 02:59N 51°17' E 004°13'0 0.0
2018-Apr-16 02:29N 51°17' E 004°13'0 0.0
2018-Apr-16 01:59N 51°17' E 004°13'0 0.0
2018-Apr-16 01:29N 51°17' E 004°13'0 0.0
2018-Apr-16 00:56N 51°17' E 004°13'0 0.0
2018-Apr-16 00:26N 51°17' E 004°13'0 0.0
2018-Apr-15 23:56N 51°17' E 004°13'0 0.0
2018-Apr-15 23:26N 51°17' E 004°13'0 0.0
2018-Apr-15 22:59N 51°17' E 004°13'0 0.0
2018-Apr-15 22:29N 51°17' E 004°13'0 0.0
2018-Apr-15 21:53N 51°17' E 004°13'0 0.0
2018-Apr-15 21:20N 51°17' E 004°13'0 0.0
2018-Apr-15 20:56N 51°17' E 004°13'0 0.0
2018-Apr-15 20:29N 51°17' E 004°13'0 0.0
2018-Apr-15 19:56N 51°17' E 004°13'0 0.0
2018-Apr-15 19:29N 51°17' E 004°13'0 0.0
2018-Apr-15 18:59N 51°17' E 004°13'0 0.0
2018-Apr-15 18:20N 51°17' E 004°13'0 0.0
2018-Apr-15 17:59N 51°17' E 004°13'0 0.0
2018-Apr-15 17:26N 51°17' E 004°13'0 0.0
2018-Apr-15 16:59N 51°17' E 004°13'0 0.0
2018-Apr-15 16:29N 51°17' E 004°13'0 0.0
2018-Apr-15 15:44N 51°17' E 004°13'0 0.0
2018-Apr-15 15:26N 51°17' E 004°13'0 0.1
2018-Apr-15 15:00N 51°17' E 004°13'2 4.5
2018-Apr-15 14:31N 51°16' E 004°16'0 0.3
2018-Apr-15 14:01N 51°16' E 004°17'1 1.4
2018-Apr-15 13:30N 51°16' E 004°18'3 6.3
2018-Apr-15 13:00N 51°19' E 004°16'510.3
2018-Apr-15 12:31N 51°24' E 004°13'713.0
2018-Apr-15 12:00N 51°24' E 004°02'5 9.5
2018-Apr-15 11:30N 51°22' E 003°55'815.6
2018-Apr-15 11:00N 51°23' E 003°43'5 9.1
2018-Apr-15 10:30N 51°28' E 003°41'0 0.0
2018-Apr-15 10:00N 51°28' E 003°41'0 0.0
2018-Apr-15 09:30N 51°28' E 003°41'0 0.0
2018-Apr-15 09:00N 51°28' E 003°41'0 0.0
2018-Apr-15 08:30N 51°28' E 003°41'0 0.0
2018-Apr-15 08:00N 51°28' E 003°41'0 0.0
2018-Apr-15 07:30N 51°28' E 003°41'0 0.0
2018-Apr-15 06:57N 51°28' E 003°41'0 0.0
2018-Apr-15 06:30N 51°28' E 003°41'0 0.0
2018-Apr-15 06:00N 51°28' E 003°41'0 0.0
2018-Apr-15 05:30N 51°28' E 003°41'0 0.0
2018-Apr-15 05:00N 51°28' E 003°41'0 0.0
2018-Apr-15 04:30N 51°28' E 003°41'0 0.0
2018-Apr-15 04:00N 51°28' E 003°41'0 0.0
2018-Apr-15 03:27N 51°28' E 003°41'0 0.0
2018-Apr-15 03:00N 51°28' E 003°41'0 0.0
2018-Apr-15 02:30N 51°28' E 003°41'0 0.0
2018-Apr-15 02:00N 51°28' E 003°41'0 0.0
2018-Apr-15 01:30N 51°28' E 003°41'0 0.0
2018-Apr-15 01:00N 51°28' E 003°41'0 0.0
2018-Apr-15 00:30N 51°28' E 003°41'0 0.0
2018-Apr-14 23:57N 51°28' E 003°41'0 0.0
2018-Apr-14 23:30N 51°28' E 003°41'0 0.0
2018-Apr-14 23:00N 51°28' E 003°41'0 0.0
2018-Apr-14 22:30N 51°28' E 003°41'0 0.0
2018-Apr-14 22:00N 51°28' E 003°41'0 0.0
2018-Apr-14 21:30N 51°28' E 003°41'0 0.0
2018-Apr-14 21:00N 51°28' E 003°41'0 0.0
2018-Apr-14 20:30N 51°28' E 003°41'0 0.0
2018-Apr-14 20:00N 51°28' E 003°41'0 0.0
2018-Apr-14 19:30N 51°28' E 003°41'0 0.0
2018-Apr-14 19:00N 51°28' E 003°41'0 0.0
2018-Apr-14 18:30N 51°28' E 003°41'0 0.0
2018-Apr-14 18:00N 51°28' E 003°41'0 0.0
2018-Apr-14 17:30N 51°28' E 003°41'0 0.0
2018-Apr-14 17:00N 51°28' E 003°41'0 0.0
2018-Apr-14 16:30N 51°28' E 003°41'0 0.0
2018-Apr-14 16:00N 51°28' E 003°41'0 0.0
2018-Apr-14 15:24N 51°28' E 003°41'0 0.0
2018-Apr-14 15:00N 51°28' E 003°41'0 0.0
2018-Apr-14 14:30N 51°28' E 003°41'0 0.1
2018-Apr-14 14:00N 51°28' E 003°41'1 1.3
2018-Apr-14 13:30N 51°27' E 003°40'3 5.7
2018-Apr-14 13:00N 51°26' E 003°36'816.5
2018-Apr-14 12:30N 51°24' E 003°23'816.9
2018-Apr-14 12:00N 51°24' E 003°10'816.2
2018-Apr-14 11:30N 51°23' E 002°57'816.2
2018-Apr-14 10:59N 51°22' E 002°44'612.7
2018-Apr-14 10:30N 51°22' E 002°34'816.6
2018-Apr-14 09:59N 51°19' E 002°21'817.1
2018-Apr-14 09:31N 51°15' E 002°10'816.8
2018-Apr-14 09:00N 51°11' E 001°58'816.4
2018-Apr-14 08:30N 51°06' E 001°47'816.1
2018-Apr-14 08:00N 51°00' E 001°38'815.7
2018-Apr-14 07:30N 50°55' E 001°30'815.2
2018-Apr-14 07:00N 50°47' E 001°26'815.1
2018-Apr-14 06:30N 50°40' E 001°22'1015.7
2018-Apr-14 05:50N 50°33' E 001°09'615.7
2018-Apr-14 05:27N 50°30' E 001°02'915.6
2018-Apr-14 04:51N 50°26' E 000°48'515.6
2018-Apr-14 04:30N 50°25' E 000°40'815.7
2018-Apr-14 04:00N 50°23' E 000°28'815.4
2018-Apr-14 03:30N 50°21' E 000°17'815.2
2018-Apr-14 03:00N 50°18' E 000°05'715.0
2018-Apr-14 02:30N 50°18' W 000°07'714.6
2018-Apr-14 02:00N 50°16' W 000°18'714.5
2018-Apr-14 01:30N 50°14' W 000°29'814.3
2018-Apr-14 00:56N 50°12' W 000°41'614.0
2018-Apr-14 00:31N 50°10' W 000°50'713.9
2018-Apr-14 00:00N 50°08' W 001°00'714.1
2018-Apr-13 23:30N 50°07' W 001°11'714.6
2018-Apr-13 23:00N 50°05' W 001°22'815.0
2018-Apr-13 22:31N 50°03' W 001°33'815.6
2018-Apr-13 22:00N 50°00' W 001°45'816.2
2018-Apr-13 21:31N 49°58' W 001°57'816.8
2018-Apr-13 21:01N 49°55' W 002°09'1217.4
2018-Apr-13 20:21N 49°52' W 002°27'617.6
2018-Apr-13 20:00N 49°51' W 002°36'816.9
2018-Apr-13 19:30N 49°49' W 002°48'1117.2
2018-Apr-13 18:53N 49°44' W 003°03'617.2
2018-Apr-13 18:30N 49°41' W 003°12'7317.3
2018-Apr-13 14:16N 49°05' W 004°50'817.6
2018-Apr-13 13:49N 49°01' W 004°60'1017.2
2018-Apr-13 13:13N 48°56' W 005°14'60015.1
2018-Apr-11 21:36N 39°30' W 009°50'112.9
2018-Apr-11 21:31N 39°29' W 009°50'612.8
2018-Apr-11 21:00N 39°23' W 009°51'612.8
2018-Apr-11 20:30N 39°16' W 009°51'612.9
2018-Apr-11 20:01N 39°10' W 009°51'612.6
2018-Apr-11 19:30N 39°03' W 009°51'612.6
2018-Apr-11 19:01N 38°57' W 009°51'612.5
2018-Apr-11 18:31N 38°51' W 009°51'612.5
2018-Apr-11 18:00N 38°44' W 009°51'611.6
2018-Apr-11 17:30N 38°39' W 009°49'612.0
2018-Apr-11 17:01N 38°34' W 009°45'611.9
2018-Apr-11 16:30N 38°29' W 009°41'612.0
2018-Apr-11 16:00N 38°24' W 009°36'612.1
2018-Apr-11 15:30N 38°19' W 009°32'611.9
2018-Apr-11 15:00N 38°14' W 009°28'611.8
2018-Apr-11 14:31N 38°09' W 009°25'611.5
2018-Apr-11 14:01N 38°04' W 009°21'611.7
2018-Apr-11 13:31N 37°59' W 009°17'611.5
2018-Apr-11 13:00N 37°54' W 009°14'612.0
2018-Apr-11 12:30N 37°48' W 009°14'612.1
2018-Apr-11 12:01N 37°42' W 009°15'611.6
2018-Apr-11 11:29N 37°36' W 009°15'198 8.9
2018-Apr-10 13:05N 35°58' W 005°39'210.0
2018-Apr-10 12:54N 35°58' W 005°37'410.3
2018-Apr-10 12:30N 35°59' W 005°32'510.9
2018-Apr-10 12:00N 36°00' W 005°25'611.3
2018-Apr-10 11:30N 36°01' W 005°19'  
Track history (hours):
 
Tides and Currents Weather Stations Pressure Air Temp Water Temp Dewpoint Dewpoint Depression Visibility Wind Speed Wind Dir Waves Ship Positions

Grande Brasile

Last reported at 2018-Apr-19 23:00 UTC. Time now 2018-Apr-19 23:17 UTC.
Position N 53°51' E 008°45'.

Length 214 m; draft 8.6 m.

Type: Cargo ship. MMSI: 236543000.

Date/timePositionNaut miles runAvg speedWind from/ knotsBaromVisibWave heightAir tempDewpointWater temp
2018-Apr-19 23:00N 53°51' E 008°45'612.2
2018-Apr-19 22:30N 53°56' E 008°39'814.9
2018-Apr-19 21:59N 53°59' E 008°27'713.5
2018-Apr-19 21:27N 53°60' E 008°15'510.2
2018-Apr-19 20:59N 53°59' E 008°07'2 4.7
2018-Apr-19 20:30N 53°59' E 008°03'3 5.1
2018-Apr-19 19:57N 53°59' E 007°58'511.6
2018-Apr-19 19:30N 53°57' E 007°50'8511.7
2018-Apr-19 12:13N 53°34' E 005°31'312.2
2018-Apr-19 12:00N 53°34' E 005°26'612.4
2018-Apr-19 11:30N 53°32' E 005°17'612.8
2018-Apr-19 11:00N 53°29' E 005°06'713.5
2018-Apr-19 10:30N 53°27' E 004°56'612.9
2018-Apr-19 10:00N 53°25' E 004°46'713.1
2018-Apr-19 09:30N 53°19' E 004°40'713.7
2018-Apr-19 09:00N 53°13' E 004°34'713.8
2018-Apr-19 08:30N 53°07' E 004°29'714.0
2018-Apr-19 08:00N 53°01' E 004°23'714.3
2018-Apr-19 07:31N 52°55' E 004°17'714.3
2018-Apr-19 07:00N 52°49' E 004°11'714.1
2018-Apr-19 06:30N 52°44' E 004°03'714.1
2018-Apr-19 06:00N 52°39' E 003°55'714.2
2018-Apr-19 05:30N 52°33' E 003°47'714.4
2018-Apr-19 05:00N 52°28' E 003°39'714.4
2018-Apr-19 04:30N 52°22' E 003°32'714.8
2018-Apr-19 04:00N 52°15' E 003°29'714.9
2018-Apr-19 03:30N 52°08' E 003°26'714.8
2018-Apr-19 03:00N 52°01' E 003°24'714.6
2018-Apr-19 02:30N 51°53' E 003°21'714.3
2018-Apr-19 02:00N 51°47' E 003°17'713.5
2018-Apr-19 01:30N 51°40' E 003°13'816.1
2018-Apr-19 01:00N 51°33' E 003°09'815.6
2018-Apr-19 00:30N 51°27' E 003°01'612.6
2018-Apr-19 00:00N 51°24' E 003°10'815.4
2018-Apr-18 23:30N 51°25' E 003°22'714.5
2018-Apr-18 23:00N 51°26' E 003°34'4 8.1
2018-Apr-18 22:30N 51°26' E 003°40'713.5
2018-Apr-18 22:00N 51°21' E 003°47'714.7
2018-Apr-18 21:30N 51°25' E 003°58'5 9.6
2018-Apr-18 21:00N 51°22' E 004°04'611.1
2018-Apr-18 20:30N 51°22' E 004°13'5 9.2
2018-Apr-18 20:00N 51°18' E 004°16'1 1.8
2018-Apr-18 19:24N 51°17' E 004°15'0 0.0
2018-Apr-18 19:00N 51°17' E 004°15'0 0.9
2018-Apr-18 18:30N 51°16' E 004°14'1 1.5
2018-Apr-18 17:57N 51°17' E 004°13'0 0.0
2018-Apr-18 17:27N 51°17' E 004°13'0 0.0
2018-Apr-18 17:00N 51°17' E 004°13'0 0.0
2018-Apr-18 16:30N 51°17' E 004°13'0 0.0
2018-Apr-18 16:00N 51°17' E 004°13'0 0.0
2018-Apr-18 15:30N 51°17' E 004°13'0 0.0
2018-Apr-18 15:00N 51°17' E 004°13'0 0.0
2018-Apr-18 14:27N 51°17' E 004°13'0 0.0
2018-Apr-18 13:57N 51°17' E 004°13'0 0.0
2018-Apr-18 13:30N 51°17' E 004°13'0 0.0
2018-Apr-18 13:00N 51°17' E 004°13'0 0.0
2018-Apr-18 12:30N 51°17' E 004°13'0 0.0
2018-Apr-18 12:00N 51°17' E 004°13'0 0.0
2018-Apr-18 11:30N 51°17' E 004°13'0 0.0
2018-Apr-18 10:54N 51°17' E 004°13'0 0.0
2018-Apr-18 10:30N 51°17' E 004°13'0 0.0
2018-Apr-18 10:00N 51°17' E 004°13'0 0.0
2018-Apr-18 09:27N 51°17' E 004°13'0 0.0
2018-Apr-18 08:57N 51°17' E 004°13'0 0.0
2018-Apr-18 08:30N 51°17' E 004°13'0 0.0
2018-Apr-18 08:00N 51°17' E 004°13'0 0.0
2018-Apr-18 07:30N 51°17' E 004°13'0 0.0
2018-Apr-18 07:00N 51°17' E 004°13'0 0.0
2018-Apr-18 06:30N 51°17' E 004°13'0 0.0
2018-Apr-18 06:00N 51°17' E 004°13'0 0.0
2018-Apr-18 05:30N 51°17' E 004°13'0 0.0
2018-Apr-18 05:00N 51°17' E 004°13'0 0.0
2018-Apr-18 04:30N 51°17' E 004°13'0 0.0
2018-Apr-18 04:00N 51°17' E 004°13'0 0.0
2018-Apr-18 03:30N 51°17' E 004°13'0 0.0
2018-Apr-18 03:00N 51°17' E 004°13'0 0.0
2018-Apr-18 02:27N 51°17' E 004°13'0 0.0
2018-Apr-18 02:00N 51°17' E 004°13'0 0.0
2018-Apr-18 01:30N 51°17' E 004°13'0 0.0
2018-Apr-18 00:57N 51°17' E 004°13'0 0.0
2018-Apr-18 00:30N 51°17' E 004°13'0 0.0
2018-Apr-18 00:00N 51°17' E 004°13'0 0.0
2018-Apr-17 23:27N 51°17' E 004°13'0 0.0
2018-Apr-17 23:00N 51°17' E 004°13'0 0.0
2018-Apr-17 22:30N 51°17' E 004°13'0 0.0
2018-Apr-17 22:00N 51°17' E 004°13'0 0.0
2018-Apr-17 21:30N 51°17' E 004°13'0 0.0
2018-Apr-17 21:00N 51°17' E 004°13'0 0.0
2018-Apr-17 20:30N 51°17' E 004°13'0 0.0
2018-Apr-17 20:00N 51°17' E 004°13'0 0.0
2018-Apr-17 19:30N 51°17' E 004°13'0 0.0
2018-Apr-17 19:00N 51°17' E 004°13'0 0.0
2018-Apr-17 18:30N 51°17' E 004°13'0 0.0
2018-Apr-17 18:00N 51°17' E 004°13'0 0.0
2018-Apr-17 17:30N 51°17' E 004°13'0 0.0
2018-Apr-17 17:00N 51°17' E 004°13'0 0.0
2018-Apr-17 16:30N 51°17' E 004°13'0 0.0
2018-Apr-17 16:00N 51°17' E 004°13'0 0.0
2018-Apr-17 15:30N 51°17' E 004°13'0 0.0
2018-Apr-17 15:00N 51°17' E 004°13'0 0.0
2018-Apr-17 14:27N 51°17' E 004°13'0 0.0
2018-Apr-17 13:51N 51°17' E 004°13'0 0.0
2018-Apr-17 13:27N 51°17' E 004°13'0 0.0
2018-Apr-17 13:00N 51°17' E 004°13'0 0.0
2018-Apr-17 12:30N 51°17' E 004°13'0 0.0
2018-Apr-17 11:57N 51°17' E 004°13'0 0.0
2018-Apr-17 11:12N 51°17' E 004°13'0 0.0
2018-Apr-17 10:48N 51°17' E 004°13'0 0.0
2018-Apr-17 10:30N 51°17' E 004°13'0 0.0
2018-Apr-17 09:57N 51°17' E 004°13'0 0.0
2018-Apr-17 09:27N 51°17' E 004°13'0 0.0
2018-Apr-17 09:00N 51°17' E 004°13'0 0.0
2018-Apr-17 08:30N 51°17' E 004°13'0 0.0
2018-Apr-17 08:00N 51°17' E 004°13'0 0.0
2018-Apr-17 07:30N 51°17' E 004°13'0 0.0
2018-Apr-17 07:00N 51°17' E 004°13'0 0.0
2018-Apr-17 06:30N 51°17' E 004°13'0 0.0
2018-Apr-17 05:57N 51°17' E 004°13'0 0.0
2018-Apr-17 05:30N 51°17' E 004°13'0 0.0
2018-Apr-17 05:00N 51°17' E 004°13'0 0.0
2018-Apr-17 04:30N 51°17' E 004°13'0 0.0
2018-Apr-17 04:00N 51°17' E 004°13'0 0.0
2018-Apr-17 03:27N 51°17' E 004°13'0 0.0
2018-Apr-17 03:00N 51°17' E 004°13'0 0.0
2018-Apr-17 02:30N 51°17' E 004°13'0 0.0
2018-Apr-17 02:00N 51°17' E 004°13'0 0.0
2018-Apr-17 01:30N 51°17' E 004°13'0 0.0
2018-Apr-17 01:00N 51°17' E 004°13'0 0.0
2018-Apr-17 00:27N 51°17' E 004°13'0 0.0
2018-Apr-16 23:57N 51°17' E 004°13'0 0.0
2018-Apr-16 23:24N 51°17' E 004°13'0 0.0
2018-Apr-16 23:00N 51°17' E 004°13'0 0.0
2018-Apr-16 22:30N 51°17' E 004°13'0 0.0
2018-Apr-16 22:00N 51°17' E 004°13'0 0.0
2018-Apr-16 21:30N 51°17' E 004°13'0 0.0
2018-Apr-16 21:00N 51°17' E 004°13'0 0.0
2018-Apr-16 20:30N 51°17' E 004°13'0 0.0
2018-Apr-16 20:00N 51°17' E 004°13'0 0.0
2018-Apr-16 19:30N 51°17' E 004°13'0 0.0
2018-Apr-16 18:51N 51°17' E 004°13'0 0.0
2018-Apr-16 18:30N 51°17' E 004°13'0 0.0
2018-Apr-16 17:57N 51°17' E 004°13'0 0.0
2018-Apr-16 17:30N 51°17' E 004°13'0 0.0
2018-Apr-16 17:00N 51°17' E 004°13'0 0.0
2018-Apr-16 16:30N 51°17' E 004°13'0 0.0
2018-Apr-16 15:51N 51°17' E 004°13'0 0.0
2018-Apr-16 15:24N 51°17' E 004°13'0 0.0
2018-Apr-16 15:00N 51°17' E 004°13'0 0.0
2018-Apr-16 14:27N 51°17' E 004°13'0 0.0
2018-Apr-16 14:00N 51°17' E 004°13'0 0.0
2018-Apr-16 13:30N 51°17' E 004°13'0 0.0
2018-Apr-16 12:54N 51°17' E 004°13'0 0.0
2018-Apr-16 12:30N 51°17' E 004°13'0 0.0
2018-Apr-16 12:00N 51°17' E 004°13'0 0.0
2018-Apr-16 11:30N 51°17' E 004°13'0 0.0
2018-Apr-16 11:00N 51°17' E 004°13'0 0.0
2018-Apr-16 10:30N 51°17' E 004°13'0 0.0
2018-Apr-16 09:54N 51°17' E 004°13'0 0.0
2018-Apr-16 09:30N 51°17' E 004°13'0 0.0
2018-Apr-16 08:58N 51°17' E 004°13'0 0.0
2018-Apr-16 08:19N 51°17' E 004°13'0 0.0
2018-Apr-16 07:56N 51°17' E 004°13'0 0.0
2018-Apr-16 07:23N 51°17' E 004°13'0 0.0
2018-Apr-16 06:59N 51°17' E 004°13'0 0.0
2018-Apr-16 06:29N 51°17' E 004°13'0 0.0
2018-Apr-16 05:59N 51°17' E 004°13'0 0.0
2018-Apr-16 05:29N 51°17' E 004°13'0 0.0
2018-Apr-16 04:59N 51°17' E 004°13'0 0.0
2018-Apr-16 04:26N 51°17' E 004°13'0 0.0
2018-Apr-16 03:56N 51°17' E 004°13'0 0.0
2018-Apr-16 03:29N 51°17' E 004°13'0 0.0
2018-Apr-16 02:59N 51°17' E 004°13'0 0.0
2018-Apr-16 02:29N 51°17' E 004°13'0 0.0
2018-Apr-16 01:59N 51°17' E 004°13'0 0.0
2018-Apr-16 01:29N 51°17' E 004°13'0 0.0
2018-Apr-16 00:56N 51°17' E 004°13'0 0.0
2018-Apr-16 00:26N 51°17' E 004°13'0 0.0
2018-Apr-15 23:56N 51°17' E 004°13'0 0.0
2018-Apr-15 23:26N 51°17' E 004°13'0 0.0
2018-Apr-15 22:59N 51°17' E 004°13'0 0.0
2018-Apr-15 22:29N 51°17' E 004°13'0 0.0
2018-Apr-15 21:53N 51°17' E 004°13'0 0.0
2018-Apr-15 21:20N 51°17' E 004°13'0 0.0
2018-Apr-15 20:56N 51°17' E 004°13'0 0.0
2018-Apr-15 20:29N 51°17' E 004°13'0 0.0
2018-Apr-15 19:56N 51°17' E 004°13'0 0.0
2018-Apr-15 19:29N 51°17' E 004°13'0 0.0
2018-Apr-15 18:59N 51°17' E 004°13'0 0.0
2018-Apr-15 18:20N 51°17' E 004°13'0 0.0
2018-Apr-15 17:59N 51°17' E 004°13'0 0.0
2018-Apr-15 17:26N 51°17' E 004°13'0 0.0
2018-Apr-15 16:59N 51°17' E 004°13'0 0.0
2018-Apr-15 16:29N 51°17' E 004°13'0 0.0
2018-Apr-15 15:44N 51°17' E 004°13'0 0.0
2018-Apr-15 15:26N 51°17' E 004°13'0 0.1
2018-Apr-15 15:00N 51°17' E 004°13'2 4.5
2018-Apr-15 14:31N 51°16' E 004°16'0 0.3
2018-Apr-15 14:01N 51°16' E 004°17'1 1.4
2018-Apr-15 13:30N 51°16' E 004°18'3 6.3
2018-Apr-15 13:00N 51°19' E 004°16'510.3
2018-Apr-15 12:31N 51°24' E 004°13'713.0
2018-Apr-15 12:00N 51°24' E 004°02'5 9.5
2018-Apr-15 11:30N 51°22' E 003°55'815.6
2018-Apr-15 11:00N 51°23' E 003°43'5 9.1
2018-Apr-15 10:30N 51°28' E 003°41'0 0.0
2018-Apr-15 10:00N 51°28' E 003°41'0 0.0
2018-Apr-15 09:30N 51°28' E 003°41'0 0.0
2018-Apr-15 09:00N 51°28' E 003°41'0 0.0
2018-Apr-15 08:30N 51°28' E 003°41'0 0.0
2018-Apr-15 08:00N 51°28' E 003°41'0 0.0
2018-Apr-15 07:30N 51°28' E 003°41'0 0.0
2018-Apr-15 06:57N 51°28' E 003°41'0 0.0
2018-Apr-15 06:30N 51°28' E 003°41'0 0.0
2018-Apr-15 06:00N 51°28' E 003°41'0 0.0
2018-Apr-15 05:30N 51°28' E 003°41'0 0.0
2018-Apr-15 05:00N 51°28' E 003°41'0 0.0
2018-Apr-15 04:30N 51°28' E 003°41'0 0.0
2018-Apr-15 04:00N 51°28' E 003°41'0 0.0
2018-Apr-15 03:27N 51°28' E 003°41'0 0.0
2018-Apr-15 03:00N 51°28' E 003°41'0 0.0
2018-Apr-15 02:30N 51°28' E 003°41'0 0.0
2018-Apr-15 02:00N 51°28' E 003°41'0 0.0
2018-Apr-15 01:30N 51°28' E 003°41'0 0.0
2018-Apr-15 01:00N 51°28' E 003°41'0 0.0
2018-Apr-15 00:30N 51°28' E 003°41'0 0.0
2018-Apr-14 23:57N 51°28' E 003°41'0 0.0
2018-Apr-14 23:30N 51°28' E 003°41'0 0.0
2018-Apr-14 23:00N 51°28' E 003°41'0 0.0
2018-Apr-14 22:30N 51°28' E 003°41'0 0.0
2018-Apr-14 22:00N 51°28' E 003°41'0 0.0
2018-Apr-14 21:30N 51°28' E 003°41'0 0.0
2018-Apr-14 21:00N 51°28' E 003°41'0 0.0
2018-Apr-14 20:30N 51°28' E 003°41'0 0.0
2018-Apr-14 20:00N 51°28' E 003°41'0 0.0
2018-Apr-14 19:30N 51°28' E 003°41'0 0.0
2018-Apr-14 19:00N 51°28' E 003°41'0 0.0
2018-Apr-14 18:30N 51°28' E 003°41'0 0.0
2018-Apr-14 18:00N 51°28' E 003°41'0 0.0
2018-Apr-14 17:30N 51°28' E 003°41'0 0.0
2018-Apr-14 17:00N 51°28' E 003°41'0 0.0
2018-Apr-14 16:30N 51°28' E 003°41'0 0.0
2018-Apr-14 16:00N 51°28' E 003°41'0 0.0
2018-Apr-14 15:24N 51°28' E 003°41'0 0.0
2018-Apr-14 15:00N 51°28' E 003°41'0 0.0
2018-Apr-14 14:30N 51°28' E 003°41'0 0.1
2018-Apr-14 14:00N 51°28' E 003°41'1 1.3
2018-Apr-14 13:30N 51°27' E 003°40'3 5.7
2018-Apr-14 13:00N 51°26' E 003°36'816.5
2018-Apr-14 12:30N 51°24' E 003°23'816.9
2018-Apr-14 12:00N 51°24' E 003°10'816.2
2018-Apr-14 11:30N 51°23' E 002°57'816.2
2018-Apr-14 10:59N 51°22' E 002°44'612.7
2018-Apr-14 10:30N 51°22' E 002°34'816.6
2018-Apr-14 09:59N 51°19' E 002°21'817.1
2018-Apr-14 09:31N 51°15' E 002°10'816.8
2018-Apr-14 09:00N 51°11' E 001°58'816.4
2018-Apr-14 08:30N 51°06' E 001°47'816.1
2018-Apr-14 08:00N 51°00' E 001°38'815.7
2018-Apr-14 07:30N 50°55' E 001°30'815.2
2018-Apr-14 07:00N 50°47' E 001°26'815.1
2018-Apr-14 06:30N 50°40' E 001°22'1015.7
2018-Apr-14 05:50N 50°33' E 001°09'615.7
2018-Apr-14 05:27N 50°30' E 001°02'915.6
2018-Apr-14 04:51N 50°26' E 000°48'515.6
2018-Apr-14 04:30N 50°25' E 000°40'815.7
2018-Apr-14 04:00N 50°23' E 000°28'815.4
2018-Apr-14 03:30N 50°21' E 000°17'815.2
2018-Apr-14 03:00N 50°18' E 000°05'715.0
2018-Apr-14 02:30N 50°18' W 000°07'714.6
2018-Apr-14 02:00N 50°16' W 000°18'714.5
2018-Apr-14 01:30N 50°14' W 000°29'814.3
2018-Apr-14 00:56N 50°12' W 000°41'614.0
2018-Apr-14 00:31N 50°10' W 000°50'713.9
2018-Apr-14 00:00N 50°08' W 001°00'714.1
2018-Apr-13 23:30N 50°07' W 001°11'714.6
2018-Apr-13 23:00N 50°05' W 001°22'815.0
2018-Apr-13 22:31N 50°03' W 001°33'815.6
2018-Apr-13 22:00N 50°00' W 001°45'816.2
2018-Apr-13 21:31N 49°58' W 001°57'816.8
2018-Apr-13 21:01N 49°55' W 002°09'1217.4
2018-Apr-13 20:21N 49°52' W 002°27'617.6
2018-Apr-13 20:00N 49°51' W 002°36'816.9
2018-Apr-13 19:30N 49°49' W 002°48'1117.2
2018-Apr-13 18:53N 49°44' W 003°03'617.2
2018-Apr-13 18:30N 49°41' W 003°12'7317.3
2018-Apr-13 14:16N 49°05' W 004°50'817.6
2018-Apr-13 13:49N 49°01' W 004°60'1017.2
2018-Apr-13 13:13N 48°56' W 005°14'60015.1
2018-Apr-11 21:36N 39°30' W 009°50'112.9
2018-Apr-11 21:31N 39°29' W 009°50'612.8
2018-Apr-11 21:00N 39°23' W 009°51'612.8
2018-Apr-11 20:30N 39°16' W 009°51'612.9
2018-Apr-11 20:01N 39°10' W 009°51'612.6
2018-Apr-11 19:30N 39°03' W 009°51'612.6
2018-Apr-11 19:01N 38°57' W 009°51'612.5
2018-Apr-11 18:31N 38°51' W 009°51'612.5
2018-Apr-11 18:00N 38°44' W 009°51'611.6
2018-Apr-11 17:30N 38°39' W 009°49'612.0
2018-Apr-11 17:01N 38°34' W 009°45'611.9
2018-Apr-11 16:30N 38°29' W 009°41'612.0
2018-Apr-11 16:00N 38°24' W 009°36'612.1
2018-Apr-11 15:30N 38°19' W 009°32'611.9
2018-Apr-11 15:00N 38°14' W 009°28'611.8
2018-Apr-11 14:31N 38°09' W 009°25'611.5
2018-Apr-11 14:01N 38°04' W 009°21'611.7
2018-Apr-11 13:31N 37°59' W 009°17'611.5
2018-Apr-11 13:00N 37°54' W 009°14'612.0
2018-Apr-11 12:30N 37°48' W 009°14'612.1
2018-Apr-11 12:01N 37°42' W 009°15'611.6
2018-Apr-11 11:29N 37°36' W 009°15'198 8.9
2018-Apr-10 13:05N 35°58' W 005°39'210.0
2018-Apr-10 12:54N 35°58' W 005°37'410.3
2018-Apr-10 12:30N 35°59' W 005°32'510.9
2018-Apr-10 12:00N 36°00' W 005°25'611.3
2018-Apr-10 11:30N 36°01' W 005°19'  

Dump ship's entire track history